createdAt,value
2018-01-29T00:00:00.524Z,3.62
2018-01-29T00:02:26.793Z,3.22
2018-01-29T00:04:53.060Z,1.90
2018-01-29T00:07:19.331Z,2.80
2018-01-29T00:09:45.649Z,3.03
2018-01-29T00:12:11.898Z,2.05
2018-01-29T00:14:38.193Z,1.85
2018-01-29T00:17:04.500Z,2.83
2018-01-29T00:19:31.498Z,2.30
2018-01-29T00:21:57.760Z,2.17
2018-01-29T00:24:23.986Z,4.18
2018-01-29T00:26:50.238Z,2.10
2018-01-29T00:29:16.460Z,3.42
2018-01-29T00:31:42.717Z,4.75
2018-01-29T00:34:08.980Z,2.65
2018-01-29T00:36:35.240Z,2.10
2018-01-29T00:39:02.278Z,4.45
2018-01-29T00:41:28.537Z,2.80
2018-01-29T00:43:55.539Z,5.37
2018-01-29T00:46:21.795Z,3.30
2018-01-29T00:48:48.053Z,7.90
2018-01-29T00:51:14.311Z,3.30
2018-01-29T00:53:40.556Z,4.05
2018-01-29T00:56:06.883Z,6.97
2018-01-29T00:58:33.191Z,1.92
2018-01-29T01:00:59.411Z,1.85
2018-01-29T01:03:25.659Z,3.62
2018-01-29T01:05:51.946Z,3.22
2018-01-29T01:08:18.212Z,3.67
2018-01-29T01:10:45.200Z,2.75
2018-01-29T01:13:11.461Z,2.40
2018-01-29T01:15:37.719Z,3.58
2018-01-29T01:18:03.973Z,4.18
2018-01-29T01:20:30.212Z,3.65
2018-01-29T01:22:56.446Z,3.33
2018-01-29T01:25:23.033Z,2.03
2018-01-29T01:27:50.025Z,3.30
2018-01-29T01:30:16.259Z,6.62
2018-01-29T01:32:42.522Z,2.42
2018-01-29T01:35:08.788Z,3.90
2018-01-29T01:37:35.071Z,3.78
2018-01-29T01:40:01.299Z,2.53
2018-01-29T01:42:27.542Z,3.65
2018-01-29T01:44:53.791Z,6.90
2018-01-29T01:47:20.037Z,3.25
2018-01-29T01:49:46.297Z,3.75
2018-01-29T01:52:12.553Z,3.28
2018-01-29T01:54:38.864Z,4.60
2018-01-29T01:57:05.125Z,2.58
2018-01-29T01:59:31.358Z,4.10
2018-01-29T02:01:57.865Z,4.62
2018-01-29T02:04:24.106Z,3.33
2018-01-29T02:06:51.086Z,3.37
2018-01-29T02:09:17.341Z,3.92
2018-01-29T02:11:43.584Z,4.70
2018-01-29T02:14:09.854Z,4.03
2018-01-29T02:16:36.098Z,5.87
2018-01-29T02:19:02.665Z,3.67
2018-01-29T02:21:28.928Z,5.60
2018-01-29T02:23:55.173Z,5.55
2018-01-29T02:26:21.450Z,3.85
2018-01-29T02:28:47.697Z,3.58
2018-01-29T02:31:13.942Z,2.83
2018-01-29T02:33:40.203Z,2.60
2018-01-29T02:36:06.495Z,6.07
2018-01-29T02:38:32.736Z,2.50
2018-01-29T02:40:59.330Z,3.33
2018-01-29T02:43:25.580Z,2.30
2018-01-29T02:45:52.619Z,2.87
2018-01-29T02:48:18.920Z,3.95
2018-01-29T02:50:45.193Z,2.50
2018-01-29T02:53:11.505Z,6.40
2018-01-29T02:55:37.764Z,4.62
2018-01-29T02:58:04.037Z,5.55
2018-01-29T03:00:30.284Z,4.20
2018-01-29T03:02:56.519Z,4.45
2018-01-29T03:05:22.778Z,3.72
2018-01-29T03:07:49.766Z,3.92
2018-01-29T03:10:16.023Z,1.87
2018-01-29T03:12:42.266Z,3.55
2018-01-29T03:15:08.521Z,3.33
2018-01-29T03:17:34.786Z,1.60
2018-01-29T03:20:01.041Z,1.80
2018-01-29T03:22:28.078Z,3.15
2018-01-29T03:24:54.318Z,1.60
2018-01-29T03:27:20.548Z,1.75
2018-01-29T03:29:46.812Z,3.33
2018-01-29T03:32:13.057Z,2.00
2018-01-29T03:34:39.591Z,3.00
2018-01-29T03:37:05.846Z,2.90
2018-01-29T03:39:32.847Z,4.20
2018-01-29T03:41:59.121Z,1.40
2018-01-29T03:44:25.377Z,2.10
2018-01-29T03:46:52.388Z,1.98
2018-01-29T03:49:18.632Z,2.33
2018-01-29T03:51:44.872Z,2.08
2018-01-29T03:54:11.128Z,2.60
2018-01-29T03:56:37.357Z,1.70
2018-01-29T03:59:03.614Z,3.60
2018-01-29T04:01:29.875Z,2.22
2018-01-29T04:03:56.134Z,2.45
2018-01-29T04:06:23.103Z,1.73
2018-01-29T04:08:49.349Z,2.22
2018-01-29T04:11:15.591Z,3.70
2018-01-29T04:13:41.830Z,1.60
2018-01-29T04:16:08.086Z,2.15
2018-01-29T04:18:34.423Z,4.03
2018-01-29T04:21:00.697Z,2.85
2018-01-29T04:23:26.930Z,2.47
2018-01-29T04:25:53.216Z,2.97
2018-01-29T04:28:20.232Z,2.40
2018-01-29T04:30:46.467Z,5.97
2018-01-29T04:33:12.725Z,1.85
2018-01-29T04:35:38.972Z,3.20
2018-01-29T04:38:05.248Z,4.05
2018-01-29T04:40:31.492Z,3.37
2018-01-29T04:42:57.783Z,3.00
2018-01-29T04:45:24.058Z,3.42
2018-01-29T04:47:51.045Z,2.92
2018-01-29T04:50:17.314Z,2.53
2018-01-29T04:52:43.602Z,1.98
2018-01-29T04:55:10.609Z,3.20
2018-01-29T04:57:36.832Z,3.50
2018-01-29T05:00:03.113Z,2.17
2018-01-29T05:02:29.361Z,2.12
2018-01-29T05:04:55.595Z,2.95
2018-01-29T05:07:21.871Z,1.95
2018-01-29T05:09:48.137Z,1.80
2018-01-29T05:12:14.737Z,2.08
2018-01-29T05:14:40.975Z,2.47
2018-01-29T05:17:07.322Z,3.08
2018-01-29T05:19:34.335Z,2.95
2018-01-29T05:22:00.557Z,2.90
2018-01-29T05:24:26.855Z,1.73
2018-01-29T05:26:53.109Z,1.85
2018-01-29T05:29:20.073Z,1.83
2018-01-29T05:31:47.084Z,2.20
2018-01-29T05:34:13.367Z,1.85
2018-01-29T05:36:46.361Z,3.00
2018-01-29T05:39:13.379Z,2.15
2018-01-29T05:41:39.674Z,1.70
2018-01-29T05:44:06.679Z,2.35
2018-01-29T05:46:32.922Z,2.70
2018-01-29T05:48:59.231Z,2.40
2018-01-29T05:51:25.497Z,6.68
2018-01-29T05:53:51.776Z,6.18
2018-01-29T05:56:18.035Z,2.75
2018-01-29T05:58:45.023Z,3.60
2018-01-29T06:01:11.273Z,2.25
2018-01-29T06:03:37.513Z,4.95
2018-01-29T06:06:03.789Z,5.00
2018-01-29T06:08:30.025Z,4.82
2018-01-29T06:10:56.285Z,4.65
2018-01-29T06:13:22.534Z,6.30
2018-01-29T06:15:49.553Z,4.10
2018-01-29T06:18:15.855Z,2.95
2018-01-29T06:20:42.105Z,7.22
2018-01-29T06:23:08.381Z,10.23
2018-01-29T06:25:34.650Z,4.27
2018-01-29T06:28:01.667Z,4.37
2018-01-29T06:30:27.954Z,2.70
2018-01-29T06:32:54.931Z,3.10
2018-01-29T06:35:21.217Z,3.47
2018-01-29T06:37:47.494Z,4.97
2018-01-29T06:40:14.477Z,6.40
2018-01-29T06:42:40.727Z,10.80
2018-01-29T06:45:06.971Z,10.57
2018-01-29T06:47:33.221Z,3.47
2018-01-29T06:49:59.467Z,4.07
2018-01-29T06:52:25.688Z,4.20
2018-01-29T06:54:51.938Z,5.55
2018-01-29T06:57:18.174Z,2.33
2018-01-29T06:59:44.420Z,6.35
2018-01-29T07:02:10.666Z,11.60
2018-01-29T07:04:36.924Z,3.05
2018-01-29T07:07:03.150Z,5.93
2018-01-29T07:09:29.409Z,2.30
2018-01-29T07:11:55.665Z,6.03
2018-01-29T07:14:21.906Z,3.28
2018-01-29T07:16:48.183Z,10.70
2018-01-29T07:19:14.408Z,5.30
2018-01-29T07:21:41.391Z,9.68
2018-01-29T07:24:07.683Z,12.65
2018-01-29T07:26:33.913Z,12.18
2018-01-29T07:29:00.930Z,4.50
2018-01-29T07:31:27.175Z,5.70
2018-01-29T07:33:53.394Z,3.28
2018-01-29T07:36:20.409Z,3.95
2018-01-29T07:38:46.679Z,7.22
2018-01-29T07:41:12.964Z,3.67
2018-01-29T07:43:39.215Z,9.35
2018-01-29T07:46:05.479Z,21.77
2018-01-29T07:48:31.740Z,22.15
2018-01-29T07:50:58.009Z,17.02
2018-01-29T07:53:24.302Z,19.75
2018-01-29T07:55:50.553Z,7.70
2018-01-29T07:58:16.875Z,7.30
2018-01-29T08:00:43.894Z,5.03
2018-01-29T08:03:10.149Z,5.78
2018-01-29T08:05:36.429Z,16.52
2018-01-29T08:08:02.697Z,8.77
2018-01-29T08:10:29.711Z,14.50
2018-01-29T08:12:55.945Z,10.90
2018-01-29T08:15:22.192Z,18.65
2018-01-29T08:17:48.517Z,9.10
2018-01-29T08:20:14.760Z,11.15
2018-01-29T08:22:41.017Z,8.45
2018-01-29T08:25:07.249Z,5.80
2018-01-29T08:27:33.550Z,6.60
2018-01-29T08:29:59.861Z,6.45
2018-01-29T08:32:26.120Z,3.85
2018-01-29T08:34:53.206Z,4.72
2018-01-29T08:37:19.453Z,5.18
2018-01-29T08:39:45.748Z,3.62
2018-01-29T08:42:12.029Z,3.47
2018-01-29T08:44:38.322Z,16.20
2018-01-29T08:47:05.375Z,7.12
2018-01-29T08:49:31.648Z,2.97
2018-01-29T08:51:57.949Z,5.05
2018-01-29T08:54:24.216Z,4.85
2018-01-29T08:56:50.522Z,2.83
2018-01-29T08:59:16.825Z,3.75
2018-01-29T09:01:43.076Z,5.28
2018-01-29T09:04:09.330Z,8.07
2018-01-29T09:06:35.609Z,2.80
2018-01-29T09:09:01.959Z,4.60
2018-01-29T09:11:28.233Z,3.20
2018-01-29T09:13:55.240Z,3.83
2018-01-29T09:16:21.501Z,3.30
2018-01-29T09:18:47.777Z,2.80
2018-01-29T09:21:14.809Z,3.78
2018-01-29T09:23:41.068Z,2.55
2018-01-29T09:26:08.082Z,2.87
2018-01-29T09:28:34.333Z,3.45
2018-01-29T09:31:00.626Z,4.12
2018-01-29T09:33:26.877Z,2.87
2018-01-29T09:35:53.155Z,3.40
2018-01-29T09:38:19.628Z,5.93
2018-01-29T09:40:46.451Z,2.67
2018-01-29T09:43:12.714Z,4.30
2018-01-29T09:45:39.052Z,3.80
2018-01-29T09:48:05.343Z,2.00
2018-01-29T09:50:31.625Z,4.37
2018-01-29T09:52:58.017Z,3.30
2018-01-29T09:55:24.278Z,3.78
2018-01-29T09:57:50.574Z,2.60
2018-01-29T10:00:16.850Z,2.37
2018-01-29T10:02:43.152Z,1.67
2018-01-29T10:05:09.460Z,3.03
2018-01-29T10:07:36.509Z,1.95
2018-01-29T10:10:02.808Z,2.78
2018-01-29T10:12:29.076Z,2.47
2018-01-29T10:14:55.342Z,2.22
2018-01-29T10:17:21.603Z,4.50
2018-01-29T10:19:47.831Z,3.67
2018-01-29T10:22:14.113Z,2.15
2018-01-29T10:24:41.117Z,2.45
2018-01-29T10:27:07.412Z,2.90
2018-01-29T10:29:33.673Z,3.65
2018-01-29T10:32:00.008Z,1.67
2018-01-29T10:34:27.023Z,2.78
2018-01-29T10:36:53.267Z,7.10
2018-01-29T10:39:19.565Z,2.20
2018-01-29T10:41:45.820Z,2.25
2018-01-29T10:44:12.083Z,2.33
2018-01-29T10:46:38.356Z,1.85
2018-01-29T10:49:05.457Z,2.03
2018-01-29T10:51:31.748Z,2.90
2018-01-29T10:53:58.127Z,1.77
2018-01-29T10:56:24.376Z,1.95
2018-01-29T10:58:50.639Z,2.65
2018-01-29T11:01:20.841Z,5.85
2018-01-29T11:03:47.081Z,1.48
2018-01-29T11:06:13.369Z,3.20
2018-01-29T11:08:46.453Z,1.30
2018-01-29T11:11:12.719Z,1.33
2018-01-29T11:13:39.004Z,4.17
2018-01-29T11:16:05.259Z,1.15
2018-01-29T11:18:31.648Z,1.60
2018-01-29T11:20:57.913Z,1.92
2018-01-29T11:23:24.968Z,3.33
2018-01-29T11:25:51.995Z,1.57
2018-01-29T11:28:18.233Z,3.20
2018-01-29T11:30:44.536Z,4.43
2018-01-29T11:33:10.806Z,2.23
2018-01-29T11:35:37.099Z,1.87
2018-01-29T11:38:04.137Z,4.43
2018-01-29T11:40:30.407Z,4.93
2018-01-29T11:42:57.658Z,3.57
2018-01-29T11:45:23.969Z,2.57
2018-01-29T11:47:50.279Z,2.97
2018-01-29T11:50:16.548Z,3.43
2018-01-29T11:52:42.805Z,2.90
2018-01-29T11:55:09.064Z,1.90
2018-01-29T11:57:35.317Z,2.17
2018-01-29T12:00:02.351Z,1.67
2018-01-29T12:02:28.621Z,1.63
2018-01-29T12:04:54.888Z,7.00
2018-01-29T12:07:21.145Z,8.20
2018-01-29T12:09:47.422Z,4.50
2018-01-29T12:12:13.665Z,21.43
2018-01-29T12:14:39.932Z,7.20
2018-01-29T12:17:06.961Z,15.63
2018-01-29T12:19:33.261Z,20.13
2018-01-29T12:21:59.516Z,8.43
2018-01-29T12:24:25.776Z,6.87
2018-01-29T12:26:52.050Z,4.70
2018-01-29T12:29:19.057Z,3.80
2018-01-29T12:31:45.316Z,9.17
2018-01-29T12:34:11.552Z,5.20
2018-01-29T12:36:37.857Z,2.73
2018-01-29T12:39:04.139Z,2.40
2018-01-29T12:41:31.131Z,2.07
2018-01-29T12:43:58.097Z,2.43
2018-01-29T12:46:25.099Z,10.57
2018-01-29T12:48:51.357Z,24.73
2018-01-29T12:51:17.619Z,7.37
2018-01-29T12:53:43.883Z,2.90
2018-01-29T12:56:10.099Z,1.60
2018-01-29T12:58:36.383Z,7.73
2018-01-29T13:01:02.638Z,13.27
2018-01-29T13:03:28.890Z,2.13
2018-01-29T13:05:55.159Z,1.37
2018-01-29T13:08:21.428Z,2.10
2018-01-29T13:10:47.677Z,1.43
2018-01-29T13:13:13.906Z,2.03
2018-01-29T13:15:40.905Z,1.80
2018-01-29T13:18:07.173Z,2.40
2018-01-29T13:20:33.445Z,1.40
2018-01-29T13:22:59.732Z,3.30
2018-01-29T13:25:26.024Z,4.60
2018-01-29T13:27:53.026Z,2.87
2018-01-29T13:30:19.290Z,1.73
2018-01-29T13:32:45.563Z,2.47
2018-01-29T13:35:12.594Z,5.80
2018-01-29T13:37:38.850Z,3.13
2018-01-29T13:40:05.112Z,1.60
2018-01-29T13:42:31.362Z,1.83
2018-01-29T13:44:57.644Z,1.33
2018-01-29T13:47:23.935Z,1.33
2018-01-29T13:49:50.945Z,2.63
2018-01-29T13:52:17.211Z,1.57
2018-01-29T13:54:43.463Z,1.70
2018-01-29T13:57:10.493Z,2.60
2018-01-29T13:59:36.735Z,1.67
2018-01-29T14:02:02.985Z,1.30
2018-01-29T14:04:29.263Z,2.00
2018-01-29T14:06:55.518Z,3.33
2018-01-29T14:09:21.837Z,2.20
2018-01-29T14:11:48.824Z,1.83
2018-01-29T14:14:15.430Z,1.37
2018-01-29T14:16:42.406Z,1.83
2018-01-29T14:19:09.377Z,0.97
2018-01-29T14:21:35.650Z,4.50
2018-01-29T14:24:01.912Z,1.70
2018-01-29T14:26:28.270Z,7.27
2018-01-29T14:28:54.517Z,5.50
2018-01-29T14:31:21.532Z,7.07
2018-01-29T14:33:47.837Z,6.33
2018-01-29T14:36:14.088Z,5.90
2018-01-29T14:38:40.360Z,5.67
2018-01-29T14:41:06.632Z,8.00
2018-01-29T14:43:32.901Z,6.87
2018-01-29T14:45:59.125Z,5.43
2018-01-29T14:48:25.434Z,10.17
2018-01-29T14:50:51.704Z,5.13
2018-01-29T14:53:18.709Z,12.97
2018-01-29T14:55:44.994Z,6.47
2018-01-29T14:58:11.248Z,11.97
2018-01-29T15:00:38.222Z,7.03
2018-01-29T15:03:04.531Z,6.20
2018-01-29T15:05:31.544Z,7.83
2018-01-29T15:07:57.812Z,12.10
2018-01-29T15:10:24.037Z,11.00
2018-01-29T15:12:50.315Z,15.10
2018-01-29T15:15:17.348Z,10.63
2018-01-29T15:17:43.581Z,11.17
2018-01-29T15:20:09.865Z,11.77
2018-01-29T15:22:36.880Z,9.40
2018-01-29T15:25:03.203Z,7.83
2018-01-29T15:27:29.468Z,9.53
2018-01-29T15:29:55.713Z,9.77
2018-01-29T15:32:22.009Z,10.90
2018-01-29T15:34:48.295Z,11.03
2018-01-29T15:37:14.593Z,11.67
2018-01-29T15:39:40.835Z,13.50
2018-01-29T15:42:07.116Z,12.90
2018-01-29T15:44:33.417Z,15.13
2018-01-29T15:46:59.697Z,14.07
2018-01-29T15:49:25.998Z,14.90
2018-01-29T15:51:53.008Z,12.27
2018-01-29T15:54:19.267Z,9.77
2018-01-29T15:56:45.516Z,9.00
2018-01-29T15:59:12.527Z,7.70
2018-01-29T16:01:38.872Z,10.63
2018-01-29T16:04:05.134Z,15.13
2018-01-29T16:06:31.457Z,17.00
2018-01-29T16:08:57.719Z,9.20
2018-01-29T16:11:23.978Z,8.63
2018-01-29T16:13:50.235Z,6.80
2018-01-29T16:16:17.244Z,7.43
2018-01-29T16:18:43.511Z,6.85
2018-01-29T16:21:09.768Z,10.98
2018-01-29T16:23:36.791Z,9.77
2018-01-29T16:26:03.110Z,8.90
2018-01-29T16:28:29.354Z,22.35
2018-01-29T16:30:55.622Z,10.50
2018-01-29T16:33:21.892Z,18.73
2018-01-29T16:35:48.940Z,11.57
2018-01-29T16:38:15.278Z,9.00
2018-01-29T16:40:41.532Z,8.40
2018-01-29T16:43:08.539Z,12.60
2018-01-29T16:45:34.795Z,13.25
2018-01-29T16:48:01.060Z,18.77
2018-01-29T16:50:27.315Z,17.23
2018-01-29T16:52:54.357Z,6.60
2018-01-29T16:55:20.624Z,9.88
2018-01-29T16:57:47.621Z,8.40
2018-01-29T17:00:13.903Z,13.45
2018-01-29T17:02:40.176Z,8.85
2018-01-29T17:05:07.233Z,8.13
2018-01-29T17:07:34.254Z,11.27
2018-01-29T17:10:00.523Z,9.30
2018-01-29T17:12:27.606Z,9.05
2018-01-29T17:14:53.883Z,10.52
2018-01-29T17:17:20.183Z,7.57
2018-01-29T17:19:46.451Z,18.67
2018-01-29T17:22:12.744Z,11.73
2018-01-29T17:24:39.009Z,9.63
2018-01-29T17:27:05.291Z,11.48
2018-01-29T17:29:31.562Z,13.52
2018-01-29T17:31:57.866Z,19.55
2018-01-29T17:34:24.185Z,20.58
2018-01-29T17:36:50.556Z,14.48
2018-01-29T17:39:16.822Z,17.20
2018-01-29T17:41:43.122Z,12.35
2018-01-29T17:44:09.422Z,14.70
2018-01-29T17:46:36.465Z,17.77
2018-01-29T17:49:03.111Z,22.52
2018-01-29T17:51:29.424Z,19.02
2018-01-29T17:53:55.779Z,19.58
2018-01-29T17:56:22.102Z,12.30
2018-01-29T17:58:48.416Z,18.58
2018-01-29T18:01:14.781Z,18.55
2018-01-29T18:03:41.178Z,16.00
2018-01-29T18:06:07.533Z,17.70
2018-01-29T18:08:34.612Z,18.08
2018-01-29T18:11:00.950Z,17.33
2018-01-29T18:13:28.080Z,16.87
2018-01-29T18:15:54.336Z,16.95
2018-01-29T18:18:21.372Z,31.48
2018-01-29T18:20:50.718Z,25.02
2018-01-29T18:23:17.223Z,39.08
2018-01-29T18:25:44.273Z,18.62
2018-01-29T18:28:10.558Z,15.73
2018-01-29T18:30:36.876Z,19.98
2018-01-29T18:33:03.182Z,17.98
2018-01-29T18:35:29.565Z,21.02
2018-01-29T18:37:55.913Z,16.83
2018-01-29T18:40:22.277Z,17.98
2018-01-29T18:42:49.366Z,14.50
2018-01-29T18:45:15.677Z,15.32
2018-01-29T18:47:42.777Z,19.90
2018-01-29T18:50:09.122Z,16.12
2018-01-29T18:52:35.466Z,17.52
2018-01-29T18:55:01.820Z,12.07
2018-01-29T18:57:28.163Z,9.75
2018-01-29T18:59:55.254Z,13.77
2018-01-29T19:02:21.602Z,7.80
2018-01-29T19:04:47.930Z,9.15
2018-01-29T19:07:14.324Z,8.05
2018-01-29T19:09:40.694Z,8.35
2018-01-29T19:12:07.038Z,9.70
2018-01-29T19:14:33.373Z,10.85
2018-01-29T19:16:59.713Z,9.55
2018-01-29T19:19:26.063Z,7.57
2018-01-29T19:21:52.501Z,7.70
2018-01-29T19:24:18.888Z,7.87
2018-01-29T19:26:45.245Z,6.03
2018-01-29T19:29:12.341Z,6.03
2018-01-29T19:31:38.756Z,6.12
2018-01-29T19:34:05.860Z,5.62
2018-01-29T19:36:32.265Z,8.20
2018-01-29T19:38:59.370Z,6.75
2018-01-29T19:41:25.725Z,8.15
2018-01-29T19:43:52.092Z,6.03
2018-01-29T19:46:18.502Z,7.00
2018-01-29T19:48:44.908Z,5.87
2018-01-29T19:51:11.274Z,10.70
2018-01-29T19:53:37.667Z,12.55
2018-01-29T19:56:04.117Z,7.40
2018-01-29T19:58:31.250Z,12.02
2018-01-29T20:00:57.645Z,9.68
2018-01-29T20:03:24.031Z,11.82
2018-01-29T20:05:50.407Z,13.18
2018-01-29T20:08:17.575Z,15.57
2018-01-29T20:10:44.797Z,13.82
2018-01-29T20:13:11.209Z,17.08
2018-01-29T20:15:37.563Z,12.02
2018-01-29T20:18:03.973Z,14.52
2018-01-29T20:20:31.105Z,12.93
2018-01-29T20:22:57.457Z,14.85
2018-01-29T20:25:24.183Z,16.27
2018-01-29T20:27:50.548Z,17.15
2018-01-29T20:30:16.905Z,15.55
2018-01-29T20:32:43.302Z,15.63
2018-01-29T20:35:09.662Z,13.30
2018-01-29T20:37:36.068Z,16.98
2018-01-29T20:40:03.192Z,18.08
2018-01-29T20:42:29.539Z,15.52
2018-01-29T20:44:55.918Z,16.92
2018-01-29T20:47:22.314Z,14.75
2018-01-29T20:49:50.273Z,19.15
2018-01-29T20:52:16.606Z,17.25
2018-01-29T20:54:43.029Z,16.45
2018-01-29T20:57:10.099Z,17.50
2018-01-29T20:59:36.411Z,19.45
2018-01-29T21:02:03.530Z,18.67
2018-01-29T21:04:29.862Z,16.52
2018-01-29T21:06:56.205Z,13.95
2018-01-29T21:09:22.553Z,16.15
2018-01-29T21:11:48.887Z,14.77
2018-01-29T21:14:15.233Z,15.30
2018-01-29T21:16:41.538Z,12.60
2018-01-29T21:19:08.632Z,13.70
2018-01-29T21:21:34.943Z,13.70
2018-01-29T21:24:01.973Z,12.85
2018-01-29T21:26:28.356Z,12.85
2018-01-29T21:28:55.376Z,15.25
2018-01-29T21:31:21.716Z,12.15
2018-01-29T21:33:48.026Z,11.10
2018-01-29T21:36:14.324Z,12.90
2018-01-29T21:38:41.366Z,12.25
2018-01-29T21:41:07.689Z,11.90
2018-01-29T21:43:33.930Z,13.52
2018-01-29T21:46:00.213Z,13.32
2018-01-29T21:48:27.243Z,9.73
2018-01-29T21:50:53.496Z,13.68
2018-01-29T21:53:19.784Z,11.63
2018-01-29T21:55:46.036Z,11.93
2018-01-29T21:58:12.325Z,13.00
2018-01-29T22:00:38.601Z,12.52
2018-01-29T22:03:04.850Z,11.65
2018-01-29T22:05:31.130Z,14.38
2018-01-29T22:07:57.404Z,15.93
2018-01-29T22:10:24.410Z,13.38
2018-01-29T22:12:50.674Z,13.25
2018-01-29T22:15:16.954Z,13.45
2018-01-29T22:17:43.986Z,13.35
2018-01-29T22:20:10.241Z,22.52
2018-01-29T22:22:37.306Z,11.98
2018-01-29T22:25:04.285Z,15.30
2018-01-29T22:27:30.904Z,10.63
2018-01-29T22:29:57.891Z,11.70
2018-01-29T22:32:24.138Z,8.95
2018-01-29T22:34:50.375Z,9.75
2018-01-29T22:37:16.616Z,10.65
2018-01-29T22:39:42.877Z,6.85
2018-01-29T22:42:09.119Z,7.30
2018-01-29T22:44:35.404Z,11.02
2018-01-29T22:47:02.404Z,6.12
2018-01-29T22:49:28.648Z,5.35
2018-01-29T22:51:54.941Z,6.07
2018-01-29T22:54:21.193Z,3.78
2018-01-29T22:56:48.205Z,8.27
2018-01-29T22:59:14.590Z,4.03
2018-01-29T23:01:40.845Z,3.20
2018-01-29T23:04:07.831Z,3.72
2018-01-29T23:06:34.070Z,5.65
2018-01-29T23:09:00.332Z,2.67
2018-01-29T23:11:26.605Z,3.45
2018-01-29T23:13:52.855Z,3.03
2018-01-29T23:16:19.873Z,5.22
2018-01-29T23:18:46.104Z,2.87
2018-01-29T23:21:12.341Z,3.72
2018-01-29T23:23:38.629Z,4.45
2018-01-29T23:26:04.861Z,4.03
2018-01-29T23:28:31.141Z,2.45
2018-01-29T23:30:57.385Z,3.17
2018-01-29T23:33:23.646Z,2.72
2018-01-29T23:35:49.913Z,2.35
2018-01-29T23:38:16.174Z,3.80
2018-01-29T23:40:42.455Z,2.62
2018-01-29T23:43:08.692Z,4.75
2018-01-29T23:45:34.955Z,5.20
2018-01-29T23:48:01.196Z,3.45
2018-01-29T23:50:27.433Z,2.25
2018-01-29T23:52:53.712Z,2.75
2018-01-29T23:55:19.971Z,3.53
2018-01-29T23:57:46.981Z,3.12
